sensor_id;sensor_type;location;lat;lon;timestamp;pressure;altitude;pressure_sealevel;temperature
18782;BMP180;9519;51.890;8.970;2023-09-19T00:02:09;98604.00;;;15.60
18782;BMP180;9519;51.890;8.970;2023-09-19T00:07:12;98600.00;;;15.60
18782;BMP180;9519;51.890;8.970;2023-09-19T00:12:15;98600.00;;;15.70
18782;BMP180;9519;51.890;8.970;2023-09-19T00:17:18;98608.00;;;15.60
18782;BMP180;9519;51.890;8.970;2023-09-19T00:22:20;98604.00;;;15.60
18782;BMP180;9519;51.890;8.970;2023-09-19T00:27:24;98599.00;;;15.50
18782;BMP180;9519;51.890;8.970;2023-09-19T00:32:26;98599.00;;;15.50
18782;BMP180;9519;51.890;8.970;2023-09-19T00:37:31;98612.00;;;15.40
18782;BMP180;9519;51.890;8.970;2023-09-19T00:42:35;98608.00;;;15.40
18782;BMP180;9519;51.890;8.970;2023-09-19T00:47:39;98607.00;;;15.40
18782;BMP180;9519;51.890;8.970;2023-09-19T00:52:43;98631.00;;;15.40
18782;BMP180;9519;51.890;8.970;2023-09-19T00:57:48;98616.00;;;15.40
18782;BMP180;9519;51.890;8.970;2023-09-19T01:02:50;98631.00;;;15.40
18782;BMP180;9519;51.890;8.970;2023-09-19T01:07:52;98637.00;;;15.30
18782;BMP180;9519;51.890;8.970;2023-09-19T01:13:06;98641.00;;;15.30
18782;BMP180;9519;51.890;8.970;2023-09-19T01:18:21;98644.00;;;15.30
18782;BMP180;9519;51.890;8.970;2023-09-19T01:23:44;98657.00;;;15.20
18782;BMP180;9519;51.890;8.970;2023-09-19T01:29:05;98656.00;;;15.20
18782;BMP180;9519;51.890;8.970;2023-09-19T01:34:15;98647.00;;;15.20
18782;BMP180;9519;51.890;8.970;2023-09-19T01:39:18;98659.00;;;15.20
18782;BMP180;9519;51.890;8.970;2023-09-19T01:44:30;98668.00;;;15.20
18782;BMP180;9519;51.890;8.970;2023-09-19T01:49:48;98670.00;;;15.20
18782;BMP180;9519;51.890;8.970;2023-09-19T01:54:56;98675.00;;;15.20
18782;BMP180;9519;51.890;8.970;2023-09-19T02:00:04;98682.00;;;15.10
18782;BMP180;9519;51.890;8.970;2023-09-19T02:05:10;98689.00;;;15.10
18782;BMP180;9519;51.890;8.970;2023-09-19T02:10:12;98680.00;;;15.00
18782;BMP180;9519;51.890;8.970;2023-09-19T02:15:15;98686.00;;;15.00
18782;BMP180;9519;51.890;8.970;2023-09-19T02:20:19;98688.00;;;15.00
18782;BMP180;9519;51.890;8.970;2023-09-19T02:25:21;98706.00;;;14.90
18782;BMP180;9519;51.890;8.970;2023-09-19T02:30:23;98717.00;;;14.90
18782;BMP180;9519;51.890;8.970;2023-09-19T02:35:27;98726.00;;;14.90
18782;BMP180;9519;51.890;8.970;2023-09-19T02:40:33;98716.00;;;14.90
18782;BMP180;9519;51.890;8.970;2023-09-19T02:45:36;98721.00;;;14.90
18782;BMP180;9519;51.890;8.970;2023-09-19T02:50:40;98727.00;;;14.90
18782;BMP180;9519;51.890;8.970;2023-09-19T02:55:43;98727.00;;;14.90
18782;BMP180;9519;51.890;8.970;2023-09-19T03:00:45;98719.00;;;14.90
18782;BMP180;9519;51.890;8.970;2023-09-19T03:05:49;98723.00;;;14.80
18782;BMP180;9519;51.890;8.970;2023-09-19T03:10:54;98732.00;;;14.80
18782;BMP180;9519;51.890;8.970;2023-09-19T03:15:55;98729.00;;;14.70
18782;BMP180;9519;51.890;8.970;2023-09-19T03:21:00;98745.00;;;14.70
18782;BMP180;9519;51.890;8.970;2023-09-19T03:26:02;98752.00;;;14.60
18782;BMP180;9519;51.890;8.970;2023-09-19T03:31:06;98760.00;;;14.60
18782;BMP180;9519;51.890;8.970;2023-09-19T03:36:10;98758.00;;;14.60
18782;BMP180;9519;51.890;8.970;2023-09-19T03:41:15;98757.00;;;14.60
18782;BMP180;9519;51.890;8.970;2023-09-19T03:46:18;98773.00;;;14.60
18782;BMP180;9519;51.890;8.970;2023-09-19T03:51:21;98763.00;;;14.50
18782;BMP180;9519;51.890;8.970;2023-09-19T03:56:23;98751.00;;;14.50
18782;BMP180;9519;51.890;8.970;2023-09-19T04:01:26;98762.00;;;14.50
18782;BMP180;9519;51.890;8.970;2023-09-19T04:06:30;98756.00;;;14.40
18782;BMP180;9519;51.890;8.970;2023-09-19T04:11:32;98761.00;;;14.40
18782;BMP180;9519;51.890;8.970;2023-09-19T04:16:34;98770.00;;;14.30
18782;BMP180;9519;51.890;8.970;2023-09-19T04:21:38;98751.00;;;14.30
18782;BMP180;9519;51.890;8.970;2023-09-19T04:26:40;98762.00;;;14.30
18782;BMP180;9519;51.890;8.970;2023-09-19T04:31:42;98767.00;;;14.20
18782;BMP180;9519;51.890;8.970;2023-09-19T04:36:47;98768.00;;;14.10
18782;BMP180;9519;51.890;8.970;2023-09-19T04:41:50;98773.00;;;14.10
18782;BMP180;9519;51.890;8.970;2023-09-19T04:46:52;98791.00;;;14.10
18782;BMP180;9519;51.890;8.970;2023-09-19T04:51:55;98800.00;;;14.00
18782;BMP180;9519;51.890;8.970;2023-09-19T04:56:57;98812.00;;;13.90
18782;BMP180;9519;51.890;8.970;2023-09-19T05:01:59;98810.00;;;13.90
18782;BMP180;9519;51.890;8.970;2023-09-19T05:07:03;98815.00;;;13.90
18782;BMP180;9519;51.890;8.970;2023-09-19T05:12:06;98820.00;;;13.80
18782;BMP180;9519;51.890;8.970;2023-09-19T05:17:08;98833.00;;;13.80
18782;BMP180;9519;51.890;8.970;2023-09-19T05:22:11;98845.00;;;13.80
18782;BMP180;9519;51.890;8.970;2023-09-19T05:27:14;98852.00;;;13.70
18782;BMP180;9519;51.890;8.970;2023-09-19T05:32:17;98872.00;;;13.70
18782;BMP180;9519;51.890;8.970;2023-09-19T05:37:23;98858.00;;;13.60
18782;BMP180;9519;51.890;8.970;2023-09-19T05:42:27;98862.00;;;13.60
18782;BMP180;9519;51.890;8.970;2023-09-19T05:47:29;98869.00;;;13.60
18782;BMP180;9519;51.890;8.970;2023-09-19T05:52:32;98884.00;;;13.50
18782;BMP180;9519;51.890;8.970;2023-09-19T05:57:34;98890.00;;;13.60
18782;BMP180;9519;51.890;8.970;2023-09-19T06:02:36;98905.00;;;13.50
18782;BMP180;9519;51.890;8.970;2023-09-19T06:07:40;98903.00;;;13.50
18782;BMP180;9519;51.890;8.970;2023-09-19T06:12:43;98909.00;;;13.50
18782;BMP180;9519;51.890;8.970;2023-09-19T06:17:47;98927.00;;;13.50
18782;BMP180;9519;51.890;8.970;2023-09-19T06:22:52;98925.00;;;13.60
18782;BMP180;9519;51.890;8.970;2023-09-19T06:27:55;98926.00;;;13.60
18782;BMP180;9519;51.890;8.970;2023-09-19T06:32:58;98911.00;;;13.60
18782;BMP180;9519;51.890;8.970;2023-09-19T06:38:04;98915.00;;;13.70
18782;BMP180;9519;51.890;8.970;2023-09-19T06:43:10;98900.00;;;13.70
18782;BMP180;9519;51.890;8.970;2023-09-19T06:48:12;98904.00;;;13.90
18782;BMP180;9519;51.890;8.970;2023-09-19T06:53:16;98898.00;;;13.90
18782;BMP180;9519;51.890;8.970;2023-09-19T06:58:18;98902.00;;;14.00
18782;BMP180;9519;51.890;8.970;2023-09-19T07:03:21;98903.00;;;14.10
18782;BMP180;9519;51.890;8.970;2023-09-19T07:08:28;98910.00;;;14.10
18782;BMP180;9519;51.890;8.970;2023-09-19T07:13:30;98919.00;;;14.20
18782;BMP180;9519;51.890;8.970;2023-09-19T07:18:32;98918.00;;;14.20
18782;BMP180;9519;51.890;8.970;2023-09-19T07:23:35;98917.00;;;14.20
18782;BMP180;9519;51.890;8.970;2023-09-19T07:28:39;98934.00;;;14.20
18782;BMP180;9519;51.890;8.970;2023-09-19T07:33:41;98942.00;;;14.20
18782;BMP180;9519;51.890;8.970;2023-09-19T07:38:44;98942.00;;;14.20
18782;BMP180;9519;51.890;8.970;2023-09-19T07:43:46;98949.00;;;14.20
18782;BMP180;9519;51.890;8.970;2023-09-19T07:48:48;98951.00;;;14.30
18782;BMP180;9519;51.890;8.970;2023-09-19T07:53:52;98954.00;;;14.40
18782;BMP180;9519;51.890;8.970;2023-09-19T07:58:55;98955.00;;;14.50
18782;BMP180;9519;51.890;8.970;2023-09-19T08:03:59;98948.00;;;14.60
18782;BMP180;9519;51.890;8.970;2023-09-19T08:09:03;98941.00;;;14.70
18782;BMP180;9519;51.890;8.970;2023-09-19T08:14:08;98934.00;;;14.80
18782;BMP180;9519;51.890;8.970;2023-09-19T08:19:15;98943.00;;;14.90
18782;BMP180;9519;51.890;8.970;2023-09-19T08:24:18;98942.00;;;14.90
18782;BMP180;9519;51.890;8.970;2023-09-19T08:29:21;98945.00;;;15.00
18782;BMP180;9519;51.890;8.970;2023-09-19T08:34:28;98955.00;;;15.10
18782;BMP180;9519;51.890;8.970;2023-09-19T08:39:35;98949.00;;;15.20
18782;BMP180;9519;51.890;8.970;2023-09-19T08:44:38;98944.00;;;15.20
18782;BMP180;9519;51.890;8.970;2023-09-19T08:49:53;98952.00;;;15.30
18782;BMP180;9519;51.890;8.970;2023-09-19T08:55:03;98961.00;;;15.40
18782;BMP180;9519;51.890;8.970;2023-09-19T09:00:13;98970.00;;;15.50
18782;BMP180;9519;51.890;8.970;2023-09-19T09:05:18;98963.00;;;15.60
18782;BMP180;9519;51.890;8.970;2023-09-19T09:10:25;98963.00;;;15.60
18782;BMP180;9519;51.890;8.970;2023-09-19T09:15:30;98973.00;;;15.60
18782;BMP180;9519;51.890;8.970;2023-09-19T09:20:33;98968.00;;;15.70
18782;BMP180;9519;51.890;8.970;2023-09-19T09:25:52;98984.00;;;15.70
18782;BMP180;9519;51.890;8.970;2023-09-19T09:30:57;98990.00;;;15.80
18782;BMP180;9519;51.890;8.970;2023-09-19T09:36:03;98964.00;;;15.80
18782;BMP180;9519;51.890;8.970;2023-09-19T09:41:08;98972.00;;;15.90
18782;BMP180;9519;51.890;8.970;2023-09-19T09:46:18;98974.00;;;16.00
18782;BMP180;9519;51.890;8.970;2023-09-19T09:51:51;98980.00;;;16.00
18782;BMP180;9519;51.890;8.970;2023-09-19T09:57:03;98980.00;;;15.90
18782;BMP180;9519;51.890;8.970;2023-09-19T10:02:14;98976.00;;;16.10
18782;BMP180;9519;51.890;8.970;2023-09-19T10:07:29;98970.00;;;16.20
18782;BMP180;9519;51.890;8.970;2023-09-19T10:12:43;98972.00;;;16.20
18782;BMP180;9519;51.890;8.970;2023-09-19T10:17:47;98973.00;;;16.30
18782;BMP180;9519;51.890;8.970;2023-09-19T10:22:50;98968.00;;;16.30
18782;BMP180;9519;51.890;8.970;2023-09-19T10:28:01;98960.00;;;16.30
18782;BMP180;9519;51.890;8.970;2023-09-19T10:33:04;98958.00;;;16.30
18782;BMP180;9519;51.890;8.970;2023-09-19T10:38:09;98969.00;;;16.50
18782;BMP180;9519;51.890;8.970;2023-09-19T10:43:16;98970.00;;;16.60
18782;BMP180;9519;51.890;8.970;2023-09-19T10:48:20;98973.00;;;16.80
18782;BMP180;9519;51.890;8.970;2023-09-19T10:53:27;98971.00;;;16.90
18782;BMP180;9519;51.890;8.970;2023-09-19T10:58:34;98961.00;;;17.00
18782;BMP180;9519;51.890;8.970;2023-09-19T11:03:39;98956.00;;;17.00
18782;BMP180;9519;51.890;8.970;2023-09-19T11:08:58;98957.00;;;17.00
18782;BMP180;9519;51.890;8.970;2023-09-19T11:14:41;98949.00;;;17.10
18782;BMP180;9519;51.890;8.970;2023-09-19T11:20:23;98944.00;;;17.20
18782;BMP180;9519;51.890;8.970;2023-09-19T11:25:42;98958.00;;;17.40
18782;BMP180;9519;51.890;8.970;2023-09-19T11:30:51;98958.00;;;17.50
18782;BMP180;9519;51.890;8.970;2023-09-19T11:36:02;98927.00;;;17.50
18782;BMP180;9519;51.890;8.970;2023-09-19T11:41:39;98921.00;;;17.60
18782;BMP180;9519;51.890;8.970;2023-09-19T11:46:54;98927.00;;;17.60
18782;BMP180;9519;51.890;8.970;2023-09-19T11:51:58;98937.00;;;17.80
18782;BMP180;9519;51.890;8.970;2023-09-19T11:57:02;98925.00;;;17.80
18782;BMP180;9519;51.890;8.970;2023-09-19T12:02:07;98920.00;;;17.90
18782;BMP180;9519;51.890;8.970;2023-09-19T12:07:13;98922.00;;;18.00
18782;BMP180;9519;51.890;8.970;2023-09-19T12:12:20;98929.00;;;18.00
18782;BMP180;9519;51.890;8.970;2023-09-19T12:17:25;98907.00;;;18.20
18782;BMP180;9519;51.890;8.970;2023-09-19T12:22:39;98916.00;;;18.20
18782;BMP180;9519;51.890;8.970;2023-09-19T12:27:46;98916.00;;;18.30
18782;BMP180;9519;51.890;8.970;2023-09-19T12:32:50;98900.00;;;18.40
18782;BMP180;9519;51.890;8.970;2023-09-19T12:37:52;98898.00;;;18.30
18782;BMP180;9519;51.890;8.970;2023-09-19T12:42:57;98905.00;;;18.50
18782;BMP180;9519;51.890;8.970;2023-09-19T12:48:20;98881.00;;;18.80
18782;BMP180;9519;51.890;8.970;2023-09-19T12:53:25;98886.00;;;18.90
18782;BMP180;9519;51.890;8.970;2023-09-19T12:58:31;98877.00;;;18.90
18782;BMP180;9519;51.890;8.970;2023-09-19T13:03:37;98878.00;;;18.90
18782;BMP180;9519;51.890;8.970;2023-09-19T13:08:40;98882.00;;;18.90
18782;BMP180;9519;51.890;8.970;2023-09-19T13:13:44;98886.00;;;19.00
18782;BMP180;9519;51.890;8.970;2023-09-19T13:18:54;98875.00;;;19.30
18782;BMP180;9519;51.890;8.970;2023-09-19T13:24:19;98877.00;;;19.50
18782;BMP180;9519;51.890;8.970;2023-09-19T13:29:21;98859.00;;;19.40
18782;BMP180;9519;51.890;8.970;2023-09-19T13:34:25;98870.00;;;19.30
18782;BMP180;9519;51.890;8.970;2023-09-19T13:39:27;98861.00;;;19.40
18782;BMP180;9519;51.890;8.970;2023-09-19T13:44:29;98858.00;;;19.70
18782;BMP180;9519;51.890;8.970;2023-09-19T13:49:33;98852.00;;;19.80
18782;BMP180;9519;51.890;8.970;2023-09-19T13:54:35;98843.00;;;19.90
18782;BMP180;9519;51.890;8.970;2023-09-19T13:59:37;98844.00;;;20.00
18782;BMP180;9519;51.890;8.970;2023-09-19T14:04:41;98855.00;;;20.00
18782;BMP180;9519;51.890;8.970;2023-09-19T14:09:43;98842.00;;;20.00
18782;BMP180;9519;51.890;8.970;2023-09-19T14:14:46;98848.00;;;20.00
18782;BMP180;9519;51.890;8.970;2023-09-19T14:19:49;98851.00;;;20.10
18782;BMP180;9519;51.890;8.970;2023-09-19T14:24:51;98839.00;;;20.20
18782;BMP180;9519;51.890;8.970;2023-09-19T14:29:55;98834.00;;;20.50
18782;BMP180;9519;51.890;8.970;2023-09-19T14:34:59;98833.00;;;20.70
18782;BMP180;9519;51.890;8.970;2023-09-19T14:40:01;98829.00;;;21.10
18782;BMP180;9519;51.890;8.970;2023-09-19T14:45:09;98820.00;;;21.60
18782;BMP180;9519;51.890;8.970;2023-09-19T14:50:13;98804.00;;;21.80
18782;BMP180;9519;51.890;8.970;2023-09-19T14:55:16;98821.00;;;21.70
18782;BMP180;9519;51.890;8.970;2023-09-19T15:00:20;98818.00;;;21.60
18782;BMP180;9519;51.890;8.970;2023-09-19T15:05:25;98817.00;;;21.80
18782;BMP180;9519;51.890;8.970;2023-09-19T15:10:28;98805.00;;;22.00
18782;BMP180;9519;51.890;8.970;2023-09-19T15:15:31;98823.00;;;22.10
18782;BMP180;9519;51.890;8.970;2023-09-19T15:20:35;98830.00;;;22.20
18782;BMP180;9519;51.890;8.970;2023-09-19T15:25:37;98823.00;;;22.40
18782;BMP180;9519;51.890;8.970;2023-09-19T15:30:41;98829.00;;;22.20
18782;BMP180;9519;51.890;8.970;2023-09-19T15:35:44;98834.00;;;21.80
18782;BMP180;9519;51.890;8.970;2023-09-19T15:40:47;98841.00;;;21.40
18782;BMP180;9519;51.890;8.970;2023-09-19T15:45:49;98842.00;;;21.00
18782;BMP180;9519;51.890;8.970;2023-09-19T15:50:53;98840.00;;;20.70
18782;BMP180;9519;51.890;8.970;2023-09-19T15:55:56;98845.00;;;20.50
18782;BMP180;9519;51.890;8.970;2023-09-19T16:00:58;98850.00;;;20.20
18782;BMP180;9519;51.890;8.970;2023-09-19T16:06:10;98850.00;;;20.00
18782;BMP180;9519;51.890;8.970;2023-09-19T16:11:14;98851.00;;;19.70
18782;BMP180;9519;51.890;8.970;2023-09-19T16:16:18;98850.00;;;19.60
18782;BMP180;9519;51.890;8.970;2023-09-19T16:21:25;98862.00;;;19.50
18782;BMP180;9519;51.890;8.970;2023-09-19T16:26:28;98863.00;;;19.50
18782;BMP180;9519;51.890;8.970;2023-09-19T16:31:31;98868.00;;;19.30
18782;BMP180;9519;51.890;8.970;2023-09-19T16:36:35;98870.00;;;19.20
18782;BMP180;9519;51.890;8.970;2023-09-19T16:41:38;98870.00;;;19.10
18782;BMP180;9519;51.890;8.970;2023-09-19T16:46:42;98863.00;;;19.10
18782;BMP180;9519;51.890;8.970;2023-09-19T16:51:46;98860.00;;;19.00
18782;BMP180;9519;51.890;8.970;2023-09-19T16:56:48;98877.00;;;18.90
18782;BMP180;9519;51.890;8.970;2023-09-19T17:01:50;98873.00;;;18.80
18782;BMP180;9519;51.890;8.970;2023-09-19T17:06:55;98869.00;;;18.70
18782;BMP180;9519;51.890;8.970;2023-09-19T17:11:58;98868.00;;;18.60
18782;BMP180;9519;51.890;8.970;2023-09-19T17:17:00;98869.00;;;18.40
18782;BMP180;9519;51.890;8.970;2023-09-19T17:22:04;98879.00;;;18.30
18782;BMP180;9519;51.890;8.970;2023-09-19T17:27:06;98879.00;;;18.20
18782;BMP180;9519;51.890;8.970;2023-09-19T17:32:09;98868.00;;;18.10
18782;BMP180;9519;51.890;8.970;2023-09-19T17:37:12;98880.00;;;18.00
18782;BMP180;9519;51.890;8.970;2023-09-19T17:42:14;98880.00;;;18.00
18782;BMP180;9519;51.890;8.970;2023-09-19T17:47:17;98862.00;;;17.90
18782;BMP180;9519;51.890;8.970;2023-09-19T17:52:20;98873.00;;;17.80
18782;BMP180;9519;51.890;8.970;2023-09-19T17:57:22;98873.00;;;17.80
18782;BMP180;9519;51.890;8.970;2023-09-19T18:02:24;98869.00;;;17.70
18782;BMP180;9519;51.890;8.970;2023-09-19T18:07:28;98873.00;;;17.70
18782;BMP180;9519;51.890;8.970;2023-09-19T18:12:31;98876.00;;;17.60
18782;BMP180;9519;51.890;8.970;2023-09-19T18:17:33;98875.00;;;17.60
18782;BMP180;9519;51.890;8.970;2023-09-19T18:22:37;98885.00;;;17.60
18782;BMP180;9519;51.890;8.970;2023-09-19T18:27:39;98883.00;;;17.50
18782;BMP180;9519;51.890;8.970;2023-09-19T18:32:42;98878.00;;;17.50
18782;BMP180;9519;51.890;8.970;2023-09-19T18:37:46;98892.00;;;17.40
18782;BMP180;9519;51.890;8.970;2023-09-19T18:42:48;98896.00;;;17.40
18782;BMP180;9519;51.890;8.970;2023-09-19T18:47:50;98891.00;;;17.40
18782;BMP180;9519;51.890;8.970;2023-09-19T18:52:53;98890.00;;;17.30
18782;BMP180;9519;51.890;8.970;2023-09-19T18:57:55;98892.00;;;17.30
18782;BMP180;9519;51.890;8.970;2023-09-19T19:02:59;98880.00;;;17.30
18782;BMP180;9519;51.890;8.970;2023-09-19T19:08:03;98899.00;;;17.20
18782;BMP180;9519;51.890;8.970;2023-09-19T19:13:06;98893.00;;;17.20
18782;BMP180;9519;51.890;8.970;2023-09-19T19:18:08;98891.00;;;17.20
18782;BMP180;9519;51.890;8.970;2023-09-19T19:23:11;98905.00;;;17.20
18782;BMP180;9519;51.890;8.970;2023-09-19T19:28:14;98888.00;;;17.20
18782;BMP180;9519;51.890;8.970;2023-09-19T19:33:16;98892.00;;;17.20
18782;BMP180;9519;51.890;8.970;2023-09-19T19:38:19;98903.00;;;17.20
18782;BMP180;9519;51.890;8.970;2023-09-19T19:43:24;98905.00;;;17.20
18782;BMP180;9519;51.890;8.970;2023-09-19T19:48:26;98910.00;;;17.20
18782;BMP180;9519;51.890;8.970;2023-09-19T19:53:31;98912.00;;;17.20
18782;BMP180;9519;51.890;8.970;2023-09-19T19:58:34;98908.00;;;17.20
18782;BMP180;9519;51.890;8.970;2023-09-19T20:03:37;98912.00;;;17.20
18782;BMP180;9519;51.890;8.970;2023-09-19T20:08:40;98915.00;;;17.30
18782;BMP180;9519;51.890;8.970;2023-09-19T20:13:42;98915.00;;;17.20
18782;BMP180;9519;51.890;8.970;2023-09-19T20:18:45;98923.00;;;17.20
18782;BMP180;9519;51.890;8.970;2023-09-19T20:23:48;98919.00;;;17.20
18782;BMP180;9519;51.890;8.970;2023-09-19T20:28:52;98908.00;;;17.20
18782;BMP180;9519;51.890;8.970;2023-09-19T20:33:57;98903.00;;;17.20
18782;BMP180;9519;51.890;8.970;2023-09-19T20:39:01;98913.00;;;17.20
18782;BMP180;9519;51.890;8.970;2023-09-19T20:44:04;98910.00;;;17.10
18782;BMP180;9519;51.890;8.970;2023-09-19T20:49:06;98906.00;;;17.10
18782;BMP180;9519;51.890;8.970;2023-09-19T20:54:09;98916.00;;;17.10
18782;BMP180;9519;51.890;8.970;2023-09-19T20:59:13;98924.00;;;17.10
18782;BMP180;9519;51.890;8.970;2023-09-19T21:04:15;98910.00;;;17.00
18782;BMP180;9519;51.890;8.970;2023-09-19T21:09:20;98920.00;;;17.00
18782;BMP180;9519;51.890;8.970;2023-09-19T21:14:22;98911.00;;;17.00
18782;BMP180;9519;51.890;8.970;2023-09-19T21:19:25;98913.00;;;17.00
18782;BMP180;9519;51.890;8.970;2023-09-19T21:24:29;98909.00;;;17.00
18782;BMP180;9519;51.890;8.970;2023-09-19T21:29:33;98911.00;;;16.90
18782;BMP180;9519;51.890;8.970;2023-09-19T21:34:35;98912.00;;;16.90
18782;BMP180;9519;51.890;8.970;2023-09-19T21:39:39;98917.00;;;16.90
18782;BMP180;9519;51.890;8.970;2023-09-19T21:44:41;98924.00;;;16.90
18782;BMP180;9519;51.890;8.970;2023-09-19T21:49:43;98923.00;;;16.80
18782;BMP180;9519;51.890;8.970;2023-09-19T21:54:51;98926.00;;;16.90
18782;BMP180;9519;51.890;8.970;2023-09-19T21:59:54;98918.00;;;16.90
18782;BMP180;9519;51.890;8.970;2023-09-19T22:04:56;98898.00;;;16.90
18782;BMP180;9519;51.890;8.970;2023-09-19T22:10:00;98892.00;;;16.90
18782;BMP180;9519;51.890;8.970;2023-09-19T22:15:06;98889.00;;;16.90
18782;BMP180;9519;51.890;8.970;2023-09-19T22:20:13;98881.00;;;16.90
18782;BMP180;9519;51.890;8.970;2023-09-19T22:25:27;98878.00;;;16.90
18782;BMP180;9519;51.890;8.970;2023-09-19T22:30:39;98871.00;;;16.90
18782;BMP180;9519;51.890;8.970;2023-09-19T22:35:47;98886.00;;;16.90
18782;BMP180;9519;51.890;8.970;2023-09-19T22:40:53;98912.00;;;16.90
18782;BMP180;9519;51.890;8.970;2023-09-19T22:45:55;98921.00;;;16.90
18782;BMP180;9519;51.890;8.970;2023-09-19T22:50:57;98927.00;;;16.90
18782;BMP180;9519;51.890;8.970;2023-09-19T22:56:06;98922.00;;;17.00
18782;BMP180;9519;51.890;8.970;2023-09-19T23:01:13;98932.00;;;17.00
18782;BMP180;9519;51.890;8.970;2023-09-19T23:06:17;98917.00;;;17.00
18782;BMP180;9519;51.890;8.970;2023-09-19T23:11:23;98920.00;;;17.00
18782;BMP180;9519;51.890;8.970;2023-09-19T23:16:27;98922.00;;;17.00
18782;BMP180;9519;51.890;8.970;2023-09-19T23:21:33;98931.00;;;17.00
18782;BMP180;9519;51.890;8.970;2023-09-19T23:26:38;98931.00;;;17.10
18782;BMP180;9519;51.890;8.970;2023-09-19T23:31:45;98921.00;;;17.10
18782;BMP180;9519;51.890;8.970;2023-09-19T23:36:47;98932.00;;;17.10
18782;BMP180;9519;51.890;8.970;2023-09-19T23:41:51;98941.00;;;17.20
18782;BMP180;9519;51.890;8.970;2023-09-19T23:46:54;98937.00;;;17.10
18782;BMP180;9519;51.890;8.970;2023-09-19T23:51:56;98939.00;;;17.20
18782;BMP180;9519;51.890;8.970;2023-09-19T23:57:00;98943.00;;;17.10
